Victoria, Nebraska
Current Conditions -  °F | °C
As of 9:53 AM on Thursday 18 Dec 2014 (Local Time) from KBBW Reporting Station
Haze Haze  
Wind Chill: 16°   Ceiling: 600
Heat Index: 25°   Visibility: 5mi
Dew Point: 24°   Wind: 8mph
Humidity: 96%   Direction: 180°S
Pressure: 30.13"   Gusts: NA
Location:  41.6612°N, 99.7844°W
Report Text: KBBW 181553Z AUTO 18007KT 5SM BR OVC006 M04/M04 A3013 RMK AO2 SLP235 T10391044
Loading
Personal Weather Stations






























Interactive Weather Map New forecast layout! Learn more

10-Day Weather Forecast

Advertisements
Track Severe Weather on mobile